sensor_id;sensor_type;location;lat;lon;timestamp;temperature;humidity
41344;DHT22;27089;50.022;7.604;2023-09-19T00:00:30;15.80;99.90
41344;DHT22;27089;50.022;7.604;2023-09-19T00:02:59;15.90;99.90
41344;DHT22;27089;50.022;7.604;2023-09-19T00:05:28;15.90;99.90
41344;DHT22;27089;50.022;7.604;2023-09-19T00:07:56;15.90;99.90
41344;DHT22;27089;50.022;7.604;2023-09-19T00:10:25;15.90;99.90
41344;DHT22;27089;50.022;7.604;2023-09-19T00:12:52;15.90;99.90
41344;DHT22;27089;50.022;7.604;2023-09-19T00:15:21;15.90;99.90
41344;DHT22;27089;50.022;7.604;2023-09-19T00:17:48;15.80;99.90
41344;DHT22;27089;50.022;7.604;2023-09-19T00:20:18;15.70;99.90
41344;DHT22;27089;50.022;7.604;2023-09-19T00:22:49;15.60;99.90
41344;DHT22;27089;50.022;7.604;2023-09-19T00:25:18;15.50;99.90
41344;DHT22;27089;50.022;7.604;2023-09-19T00:27:44;15.40;99.90
41344;DHT22;27089;50.022;7.604;2023-09-19T00:30:13;15.40;99.90
41344;DHT22;27089;50.022;7.604;2023-09-19T00:32:45;15.40;99.90
41344;DHT22;27089;50.022;7.604;2023-09-19T00:35:13;15.40;99.90
41344;DHT22;27089;50.022;7.604;2023-09-19T00:37:40;15.50;99.90
41344;DHT22;27089;50.022;7.604;2023-09-19T00:40:10;15.50;99.90
41344;DHT22;27089;50.022;7.604;2023-09-19T00:42:38;15.50;99.90
41344;DHT22;27089;50.022;7.604;2023-09-19T00:45:07;15.50;99.90
41344;DHT22;27089;50.022;7.604;2023-09-19T00:47:37;15.50;99.90
41344;DHT22;27089;50.022;7.604;2023-09-19T00:50:05;15.50;99.90
41344;DHT22;27089;50.022;7.604;2023-09-19T00:52:34;15.50;99.90
41344;DHT22;27089;50.022;7.604;2023-09-19T00:55:02;15.40;99.90
41344;DHT22;27089;50.022;7.604;2023-09-19T00:57:31;15.30;99.90
41344;DHT22;27089;50.022;7.604;2023-09-19T01:00:00;15.30;99.90
41344;DHT22;27089;50.022;7.604;2023-09-19T01:02:31;15.20;99.90
41344;DHT22;27089;50.022;7.604;2023-09-19T01:04:58;15.30;99.90
41344;DHT22;27089;50.022;7.604;2023-09-19T01:07:25;15.20;99.90
41344;DHT22;27089;50.022;7.604;2023-09-19T01:09:52;15.20;99.90
41344;DHT22;27089;50.022;7.604;2023-09-19T01:12:27;15.10;99.90
41344;DHT22;27089;50.022;7.604;2023-09-19T01:15:04;15.10;99.90
41344;DHT22;27089;50.022;7.604;2023-09-19T01:17:40;15.10;99.90
41344;DHT22;27089;50.022;7.604;2023-09-19T01:20:27;15.10;99.90
41344;DHT22;27089;50.022;7.604;2023-09-19T01:23:11;15.20;99.90
41344;DHT22;27089;50.022;7.604;2023-09-19T01:26:07;15.20;99.90
41344;DHT22;27089;50.022;7.604;2023-09-19T01:29:00;15.20;99.90
41344;DHT22;27089;50.022;7.604;2023-09-19T01:31:32;15.20;99.90
41344;DHT22;27089;50.022;7.604;2023-09-19T01:34:02;15.10;99.90
41344;DHT22;27089;50.022;7.604;2023-09-19T01:36:31;15.00;99.90
41344;DHT22;27089;50.022;7.604;2023-09-19T01:39:03;14.90;99.90
41344;DHT22;27089;50.022;7.604;2023-09-19T01:41:45;14.80;99.90
41344;DHT22;27089;50.022;7.604;2023-09-19T01:44:21;14.70;99.90
41344;DHT22;27089;50.022;7.604;2023-09-19T01:46:50;14.60;99.90
41344;DHT22;27089;50.022;7.604;2023-09-19T01:49:25;14.50;99.90
41344;DHT22;27089;50.022;7.604;2023-09-19T01:52:00;14.40;99.90
41344;DHT22;27089;50.022;7.604;2023-09-19T01:54:32;14.40;99.90
41344;DHT22;27089;50.022;7.604;2023-09-19T01:57:07;14.30;99.90
41344;DHT22;27089;50.022;7.604;2023-09-19T01:59:43;14.20;99.90
41344;DHT22;27089;50.022;7.604;2023-09-19T02:02:14;14.20;99.90
41344;DHT22;27089;50.022;7.604;2023-09-19T02:04:42;14.10;99.90
41344;DHT22;27089;50.022;7.604;2023-09-19T02:07:09;14.10;99.90
41344;DHT22;27089;50.022;7.604;2023-09-19T02:09:36;14.00;99.90
41344;DHT22;27089;50.022;7.604;2023-09-19T02:12:05;14.00;99.90
41344;DHT22;27089;50.022;7.604;2023-09-19T02:14:32;14.00;99.90
41344;DHT22;27089;50.022;7.604;2023-09-19T02:17:00;13.90;99.90
41344;DHT22;27089;50.022;7.604;2023-09-19T02:19:29;13.90;99.90
41344;DHT22;27089;50.022;7.604;2023-09-19T02:21:59;13.90;99.90
41344;DHT22;27089;50.022;7.604;2023-09-19T02:24:27;13.90;99.90
41344;DHT22;27089;50.022;7.604;2023-09-19T02:26:54;13.80;99.90
41344;DHT22;27089;50.022;7.604;2023-09-19T02:29:21;13.80;99.90
41344;DHT22;27089;50.022;7.604;2023-09-19T02:31:48;13.80;99.90
41344;DHT22;27089;50.022;7.604;2023-09-19T02:34:15;13.80;99.90
41344;DHT22;27089;50.022;7.604;2023-09-19T02:36:44;13.80;99.90
41344;DHT22;27089;50.022;7.604;2023-09-19T02:39:11;13.80;99.90
41344;DHT22;27089;50.022;7.604;2023-09-19T02:41:38;13.70;99.90
41344;DHT22;27089;50.022;7.604;2023-09-19T02:44:07;13.70;99.90
41344;DHT22;27089;50.022;7.604;2023-09-19T02:46:34;13.70;99.90
41344;DHT22;27089;50.022;7.604;2023-09-19T02:49:03;13.70;99.90
41344;DHT22;27089;50.022;7.604;2023-09-19T02:51:31;13.70;99.90
41344;DHT22;27089;50.022;7.604;2023-09-19T02:54:01;13.70;99.90
41344;DHT22;27089;50.022;7.604;2023-09-19T02:56:29;13.70;99.90
41344;DHT22;27089;50.022;7.604;2023-09-19T02:58:58;13.70;99.90
41344;DHT22;27089;50.022;7.604;2023-09-19T03:01:26;13.70;99.90
41344;DHT22;27089;50.022;7.604;2023-09-19T03:03:53;13.70;99.90
41344;DHT22;27089;50.022;7.604;2023-09-19T03:06:20;13.70;99.90
41344;DHT22;27089;50.022;7.604;2023-09-19T03:08:49;13.80;99.90
41344;DHT22;27089;50.022;7.604;2023-09-19T03:11:18;13.80;99.90
41344;DHT22;27089;50.022;7.604;2023-09-19T03:13:53;13.80;99.90
41344;DHT22;27089;50.022;7.604;2023-09-19T03:16:20;13.80;99.90
41344;DHT22;27089;50.022;7.604;2023-09-19T03:18:48;13.90;99.90
41344;DHT22;27089;50.022;7.604;2023-09-19T03:21:15;13.90;99.90
41344;DHT22;27089;50.022;7.604;2023-09-19T03:23:43;14.00;99.90
41344;DHT22;27089;50.022;7.604;2023-09-19T03:26:12;14.10;99.90
41344;DHT22;27089;50.022;7.604;2023-09-19T03:28:41;14.10;99.90
41344;DHT22;27089;50.022;7.604;2023-09-19T03:31:09;14.10;99.90
41344;DHT22;27089;50.022;7.604;2023-09-19T03:33:36;14.20;99.90
41344;DHT22;27089;50.022;7.604;2023-09-19T03:36:03;14.20;99.90
41344;DHT22;27089;50.022;7.604;2023-09-19T03:38:32;14.20;99.90
41344;DHT22;27089;50.022;7.604;2023-09-19T03:40:59;14.20;99.90
41344;DHT22;27089;50.022;7.604;2023-09-19T03:43:26;14.30;99.90
41344;DHT22;27089;50.022;7.604;2023-09-19T03:45:55;14.30;99.90
41344;DHT22;27089;50.022;7.604;2023-09-19T03:48:22;14.30;99.90
41344;DHT22;27089;50.022;7.604;2023-09-19T03:50:48;14.30;99.90
41344;DHT22;27089;50.022;7.604;2023-09-19T03:53:16;14.40;99.90
41344;DHT22;27089;50.022;7.604;2023-09-19T03:55:45;14.40;99.90
41344;DHT22;27089;50.022;7.604;2023-09-19T03:58:15;14.40;99.90
41344;DHT22;27089;50.022;7.604;2023-09-19T04:00:42;14.40;99.90
41344;DHT22;27089;50.022;7.604;2023-09-19T04:03:11;14.40;99.90
41344;DHT22;27089;50.022;7.604;2023-09-19T04:05:45;14.40;99.90
41344;DHT22;27089;50.022;7.604;2023-09-19T04:08:12;14.40;99.90
41344;DHT22;27089;50.022;7.604;2023-09-19T04:10:42;14.40;99.90
41344;DHT22;27089;50.022;7.604;2023-09-19T04:13:09;14.40;99.90
41344;DHT22;27089;50.022;7.604;2023-09-19T04:15:36;14.40;99.90
41344;DHT22;27089;50.022;7.604;2023-09-19T04:18:03;14.40;99.90
41344;DHT22;27089;50.022;7.604;2023-09-19T04:20:31;14.40;99.90
41344;DHT22;27089;50.022;7.604;2023-09-19T04:22:58;14.40;99.90
41344;DHT22;27089;50.022;7.604;2023-09-19T04:25:26;14.30;99.90
41344;DHT22;27089;50.022;7.604;2023-09-19T04:27:53;14.30;99.90
41344;DHT22;27089;50.022;7.604;2023-09-19T04:30:20;14.30;99.90
41344;DHT22;27089;50.022;7.604;2023-09-19T04:32:47;14.30;99.90
41344;DHT22;27089;50.022;7.604;2023-09-19T04:35:16;14.30;99.90
41344;DHT22;27089;50.022;7.604;2023-09-19T04:37:44;14.30;99.90
41344;DHT22;27089;50.022;7.604;2023-09-19T04:40:12;14.30;99.90
41344;DHT22;27089;50.022;7.604;2023-09-19T04:42:42;14.20;99.90
41344;DHT22;27089;50.022;7.604;2023-09-19T04:45:10;14.20;99.90
41344;DHT22;27089;50.022;7.604;2023-09-19T04:47:37;14.20;99.90
41344;DHT22;27089;50.022;7.604;2023-09-19T04:50:07;14.20;99.90
41344;DHT22;27089;50.022;7.604;2023-09-19T04:52:38;14.10;99.90
41344;DHT22;27089;50.022;7.604;2023-09-19T04:55:09;14.00;99.90
41344;DHT22;27089;50.022;7.604;2023-09-19T04:57:36;14.00;99.90
41344;DHT22;27089;50.022;7.604;2023-09-19T05:00:05;14.00;99.90
41344;DHT22;27089;50.022;7.604;2023-09-19T05:02:38;14.00;99.90
41344;DHT22;27089;50.022;7.604;2023-09-19T05:05:07;14.00;99.90
41344;DHT22;27089;50.022;7.604;2023-09-19T05:07:34;14.10;99.90
41344;DHT22;27089;50.022;7.604;2023-09-19T05:10:02;14.10;99.90
41344;DHT22;27089;50.022;7.604;2023-09-19T05:12:34;14.10;99.90
41344;DHT22;27089;50.022;7.604;2023-09-19T05:15:01;14.20;99.90
41344;DHT22;27089;50.022;7.604;2023-09-19T05:17:29;14.20;99.90
41344;DHT22;27089;50.022;7.604;2023-09-19T05:19:56;14.20;99.90
41344;DHT22;27089;50.022;7.604;2023-09-19T05:22:27;14.20;99.90
41344;DHT22;27089;50.022;7.604;2023-09-19T05:24:53;14.30;99.90
41344;DHT22;27089;50.022;7.604;2023-09-19T05:27:20;14.30;99.90
41344;DHT22;27089;50.022;7.604;2023-09-19T05:29:49;14.30;99.90
41344;DHT22;27089;50.022;7.604;2023-09-19T05:32:18;14.30;99.90
41344;DHT22;27089;50.022;7.604;2023-09-19T05:34:46;14.30;99.90
41344;DHT22;27089;50.022;7.604;2023-09-19T05:37:13;14.30;99.90
41344;DHT22;27089;50.022;7.604;2023-09-19T05:39:41;14.40;99.90
41344;DHT22;27089;50.022;7.604;2023-09-19T05:42:09;14.40;99.90
41344;DHT22;27089;50.022;7.604;2023-09-19T05:44:36;14.30;99.90
41344;DHT22;27089;50.022;7.604;2023-09-19T05:47:05;14.30;99.90
41344;DHT22;27089;50.022;7.604;2023-09-19T05:49:34;14.40;99.90
41344;DHT22;27089;50.022;7.604;2023-09-19T05:52:04;14.40;99.90
41344;DHT22;27089;50.022;7.604;2023-09-19T05:54:31;14.40;99.90
41344;DHT22;27089;50.022;7.604;2023-09-19T05:56:58;14.50;99.90
41344;DHT22;27089;50.022;7.604;2023-09-19T05:59:25;14.60;99.90
41344;DHT22;27089;50.022;7.604;2023-09-19T06:01:52;14.60;99.90
41344;DHT22;27089;50.022;7.604;2023-09-19T06:04:20;14.70;99.90
41344;DHT22;27089;50.022;7.604;2023-09-19T06:06:48;14.90;99.90
41344;DHT22;27089;50.022;7.604;2023-09-19T06:09:15;15.00;99.90
41344;DHT22;27089;50.022;7.604;2023-09-19T06:11:42;15.00;99.90
41344;DHT22;27089;50.022;7.604;2023-09-19T06:14:09;15.10;99.90
41344;DHT22;27089;50.022;7.604;2023-09-19T06:16:37;15.10;99.90
41344;DHT22;27089;50.022;7.604;2023-09-19T06:19:05;15.10;99.90
41344;DHT22;27089;50.022;7.604;2023-09-19T06:21:35;15.20;99.90
41344;DHT22;27089;50.022;7.604;2023-09-19T06:24:03;15.20;99.90
41344;DHT22;27089;50.022;7.604;2023-09-19T06:26:30;15.10;99.90
41344;DHT22;27089;50.022;7.604;2023-09-19T06:28:57;15.10;99.90
41344;DHT22;27089;50.022;7.604;2023-09-19T06:31:25;15.10;99.90
41344;DHT22;27089;50.022;7.604;2023-09-19T06:33:52;15.10;99.90
41344;DHT22;27089;50.022;7.604;2023-09-19T06:36:19;15.20;99.90
41344;DHT22;27089;50.022;7.604;2023-09-19T06:38:48;15.20;99.90
41344;DHT22;27089;50.022;7.604;2023-09-19T06:41:17;15.30;99.90
41344;DHT22;27089;50.022;7.604;2023-09-19T06:43:44;15.40;99.90
41344;DHT22;27089;50.022;7.604;2023-09-19T06:46:11;15.60;99.90
41344;DHT22;27089;50.022;7.604;2023-09-19T06:48:38;15.90;99.90
41344;DHT22;27089;50.022;7.604;2023-09-19T06:51:05;16.00;99.90
41344;DHT22;27089;50.022;7.604;2023-09-19T06:53:33;16.10;99.90
41344;DHT22;27089;50.022;7.604;2023-09-19T06:56:02;16.20;99.90
41344;DHT22;27089;50.022;7.604;2023-09-19T06:58:29;16.60;99.90
41344;DHT22;27089;50.022;7.604;2023-09-19T07:00:57;17.10;99.90
41344;DHT22;27089;50.022;7.604;2023-09-19T07:03:24;17.30;99.90
41344;DHT22;27089;50.022;7.604;2023-09-19T07:05:52;17.50;99.90
41344;DHT22;27089;50.022;7.604;2023-09-19T07:08:21;17.50;99.90
41344;DHT22;27089;50.022;7.604;2023-09-19T07:10:48;17.50;99.90
41344;DHT22;27089;50.022;7.604;2023-09-19T07:13:19;17.30;99.90
41344;DHT22;27089;50.022;7.604;2023-09-19T07:15:46;17.20;99.90
41344;DHT22;27089;50.022;7.604;2023-09-19T07:18:14;16.90;99.90
41344;DHT22;27089;50.022;7.604;2023-09-19T07:20:42;16.80;99.90
41344;DHT22;27089;50.022;7.604;2023-09-19T07:23:14;16.80;99.90
41344;DHT22;27089;50.022;7.604;2023-09-19T07:25:42;16.80;99.90
41344;DHT22;27089;50.022;7.604;2023-09-19T07:28:09;16.90;99.90
41344;DHT22;27089;50.022;7.604;2023-09-19T07:30:37;16.90;99.90
41344;DHT22;27089;50.022;7.604;2023-09-19T07:33:05;17.10;99.90
41344;DHT22;27089;50.022;7.604;2023-09-19T07:35:32;17.70;99.90
41344;DHT22;27089;50.022;7.604;2023-09-19T07:37:59;18.10;99.90
41344;DHT22;27089;50.022;7.604;2023-09-19T07:40:28;18.20;99.90
41344;DHT22;27089;50.022;7.604;2023-09-19T07:42:55;18.50;99.90
41344;DHT22;27089;50.022;7.604;2023-09-19T07:45:26;18.80;99.90
41344;DHT22;27089;50.022;7.604;2023-09-19T07:47:57;20.10;99.90
41344;DHT22;27089;50.022;7.604;2023-09-19T07:50:26;21.60;99.90
41344;DHT22;27089;50.022;7.604;2023-09-19T07:52:53;22.00;99.90
41344;DHT22;27089;50.022;7.604;2023-09-19T07:55:20;23.20;99.90
41344;DHT22;27089;50.022;7.604;2023-09-19T07:57:49;24.30;99.90
41344;DHT22;27089;50.022;7.604;2023-09-19T08:00:16;24.60;99.90
41344;DHT22;27089;50.022;7.604;2023-09-19T08:02:43;23.60;99.90
41344;DHT22;27089;50.022;7.604;2023-09-19T08:05:12;22.80;99.90
41344;DHT22;27089;50.022;7.604;2023-09-19T08:07:42;21.90;99.90
41344;DHT22;27089;50.022;7.604;2023-09-19T08:10:11;22.70;99.90
41344;DHT22;27089;50.022;7.604;2023-09-19T08:12:40;23.80;99.90
41344;DHT22;27089;50.022;7.604;2023-09-19T08:15:12;23.30;99.90
41344;DHT22;27089;50.022;7.604;2023-09-19T08:17:39;22.20;99.90
41344;DHT22;27089;50.022;7.604;2023-09-19T08:20:07;21.10;99.90
41344;DHT22;27089;50.022;7.604;2023-09-19T08:22:43;21.10;99.90
41344;DHT22;27089;50.022;7.604;2023-09-19T08:25:12;23.20;99.90
41344;DHT22;27089;50.022;7.604;2023-09-19T08:27:39;24.80;99.90
41344;DHT22;27089;50.022;7.604;2023-09-19T08:30:06;25.70;99.90
41344;DHT22;27089;50.022;7.604;2023-09-19T08:32:34;25.80;99.90
41344;DHT22;27089;50.022;7.604;2023-09-19T08:35:01;25.70;99.90
41344;DHT22;27089;50.022;7.604;2023-09-19T08:37:30;25.20;99.90
41344;DHT22;27089;50.022;7.604;2023-09-19T08:39:59;23.70;99.90
41344;DHT22;27089;50.022;7.604;2023-09-19T08:42:26;22.70;99.90
41344;DHT22;27089;50.022;7.604;2023-09-19T08:44:55;23.40;99.90
41344;DHT22;27089;50.022;7.604;2023-09-19T08:47:33;23.40;99.90
41344;DHT22;27089;50.022;7.604;2023-09-19T08:50:04;24.20;99.90
41344;DHT22;27089;50.022;7.604;2023-09-19T08:52:42;23.00;99.90
41344;DHT22;27089;50.022;7.604;2023-09-19T08:55:13;22.00;99.90
41344;DHT22;27089;50.022;7.604;2023-09-19T08:57:46;21.00;99.90
41344;DHT22;27089;50.022;7.604;2023-09-19T09:00:15;20.10;99.90
41344;DHT22;27089;50.022;7.604;2023-09-19T09:02:44;19.60;99.90
41344;DHT22;27089;50.022;7.604;2023-09-19T09:05:13;19.30;99.90
41344;DHT22;27089;50.022;7.604;2023-09-19T09:07:42;20.30;99.90
41344;DHT22;27089;50.022;7.604;2023-09-19T09:10:11;22.40;99.90
41344;DHT22;27089;50.022;7.604;2023-09-19T09:12:39;24.10;99.90
41344;DHT22;27089;50.022;7.604;2023-09-19T09:15:08;25.00;99.90
41344;DHT22;27089;50.022;7.604;2023-09-19T09:17:37;24.80;99.90
41344;DHT22;27089;50.022;7.604;2023-09-19T09:20:05;24.50;99.90
41344;DHT22;27089;50.022;7.604;2023-09-19T09:22:35;23.80;99.90
41344;DHT22;27089;50.022;7.604;2023-09-19T09:25:06;22.90;99.90
41344;DHT22;27089;50.022;7.604;2023-09-19T09:27:35;23.00;99.90
41344;DHT22;27089;50.022;7.604;2023-09-19T09:30:02;24.00;99.90
41344;DHT22;27089;50.022;7.604;2023-09-19T09:32:30;25.20;99.90
41344;DHT22;27089;50.022;7.604;2023-09-19T09:35:01;26.40;98.90
41344;DHT22;27089;50.022;7.604;2023-09-19T09:37:30;27.10;96.20
41344;DHT22;27089;50.022;7.604;2023-09-19T09:39:58;27.20;93.70
41344;DHT22;27089;50.022;7.604;2023-09-19T09:42:46;26.80;93.80
41344;DHT22;27089;50.022;7.604;2023-09-19T09:45:16;25.40;93.40
41344;DHT22;27089;50.022;7.604;2023-09-19T09:47:46;24.30;94.90
41344;DHT22;27089;50.022;7.604;2023-09-19T09:50:28;23.60;97.00
41344;DHT22;27089;50.022;7.604;2023-09-19T09:53:19;24.10;97.70
41344;DHT22;27089;50.022;7.604;2023-09-19T09:56:03;24.70;97.20
41344;DHT22;27089;50.022;7.604;2023-09-19T09:58:34;25.10;96.60
41344;DHT22;27089;50.022;7.604;2023-09-19T10:01:03;25.70;95.60
41344;DHT22;27089;50.022;7.604;2023-09-19T10:03:35;26.00;94.50
41344;DHT22;27089;50.022;7.604;2023-09-19T10:06:07;26.30;92.80
41344;DHT22;27089;50.022;7.604;2023-09-19T10:09:00;26.30;88.60
41344;DHT22;27089;50.022;7.604;2023-09-19T10:11:40;26.20;88.70
41344;DHT22;27089;50.022;7.604;2023-09-19T10:14:11;25.40;89.70
41344;DHT22;27089;50.022;7.604;2023-09-19T10:16:43;25.20;90.60
41344;DHT22;27089;50.022;7.604;2023-09-19T10:19:16;24.80;90.40
41344;DHT22;27089;50.022;7.604;2023-09-19T10:21:44;24.20;91.40
41344;DHT22;27089;50.022;7.604;2023-09-19T10:24:11;23.30;92.00
41344;DHT22;27089;50.022;7.604;2023-09-19T10:26:42;22.80;94.30
41344;DHT22;27089;50.022;7.604;2023-09-19T10:29:13;22.70;95.20
41344;DHT22;27089;50.022;7.604;2023-09-19T10:31:42;22.50;96.20
41344;DHT22;27089;50.022;7.604;2023-09-19T10:34:14;22.50;98.00
41344;DHT22;27089;50.022;7.604;2023-09-19T10:36:44;22.30;98.60
41344;DHT22;27089;50.022;7.604;2023-09-19T10:39:15;22.20;99.50
41344;DHT22;27089;50.022;7.604;2023-09-19T10:41:50;22.10;99.90
41344;DHT22;27089;50.022;7.604;2023-09-19T10:44:24;22.10;99.90
41344;DHT22;27089;50.022;7.604;2023-09-19T10:46:52;22.30;99.90
41344;DHT22;27089;50.022;7.604;2023-09-19T10:49:20;22.10;99.90
41344;DHT22;27089;50.022;7.604;2023-09-19T10:51:50;22.10;98.30
41344;DHT22;27089;50.022;7.604;2023-09-19T10:54:22;22.20;99.70
41344;DHT22;27089;50.022;7.604;2023-09-19T10:56:53;22.40;99.90
41344;DHT22;27089;50.022;7.604;2023-09-19T10:59:25;22.40;99.00
41344;DHT22;27089;50.022;7.604;2023-09-19T11:02:00;22.20;99.20
41344;DHT22;27089;50.022;7.604;2023-09-19T11:04:43;21.80;98.70
41344;DHT22;27089;50.022;7.604;2023-09-19T11:07:13;21.70;99.00
41344;DHT22;27089;50.022;7.604;2023-09-19T11:09:45;21.50;99.90
41344;DHT22;27089;50.022;7.604;2023-09-19T11:14:56;21.30;99.90
41344;DHT22;27089;50.022;7.604;2023-09-19T11:17:33;21.10;99.90
41344;DHT22;27089;50.022;7.604;2023-09-19T11:20:21;20.70;99.90
41344;DHT22;27089;50.022;7.604;2023-09-19T11:23:23;20.40;99.90
41344;DHT22;27089;50.022;7.604;2023-09-19T11:25:53;20.20;99.90
41344;DHT22;27089;50.022;7.604;2023-09-19T11:28:30;20.00;99.90
41344;DHT22;27089;50.022;7.604;2023-09-19T11:34:44;20.20;99.90
41344;DHT22;27089;50.022;7.604;2023-09-19T11:40:25;20.10;99.90
41344;DHT22;27089;50.022;7.604;2023-09-19T11:42:54;20.20;99.90
41344;DHT22;27089;50.022;7.604;2023-09-19T11:48:32;20.40;99.90
41344;DHT22;27089;50.022;7.604;2023-09-19T11:51:00;20.40;99.90
41344;DHT22;27089;50.022;7.604;2023-09-19T11:53:33;20.50;99.90
41344;DHT22;27089;50.022;7.604;2023-09-19T11:56:04;20.60;99.90
41344;DHT22;27089;50.022;7.604;2023-09-19T11:58:37;20.70;99.90
41344;DHT22;27089;50.022;7.604;2023-09-19T12:01:05;20.60;99.90
41344;DHT22;27089;50.022;7.604;2023-09-19T12:03:43;20.90;99.90
41344;DHT22;27089;50.022;7.604;2023-09-19T12:06:14;21.00;99.90
41344;DHT22;27089;50.022;7.604;2023-09-19T12:08:41;20.90;99.90
41344;DHT22;27089;50.022;7.604;2023-09-19T12:11:13;20.70;99.90
41344;DHT22;27089;50.022;7.604;2023-09-19T12:13:42;20.80;99.90
41344;DHT22;27089;50.022;7.604;2023-09-19T12:16:15;20.70;99.90
41344;DHT22;27089;50.022;7.604;2023-09-19T12:18:44;20.50;99.90
41344;DHT22;27089;50.022;7.604;2023-09-19T12:21:29;20.40;99.90
41344;DHT22;27089;50.022;7.604;2023-09-19T12:24:04;20.50;99.90
41344;DHT22;27089;50.022;7.604;2023-09-19T12:26:41;20.60;99.90
41344;DHT22;27089;50.022;7.604;2023-09-19T12:29:16;20.60;99.90
41344;DHT22;27089;50.022;7.604;2023-09-19T12:31:51;20.50;99.90
41344;DHT22;27089;50.022;7.604;2023-09-19T12:34:25;20.30;99.90
41344;DHT22;27089;50.022;7.604;2023-09-19T12:37:10;20.30;99.90
41344;DHT22;27089;50.022;7.604;2023-09-19T12:39:46;20.40;99.90
41344;DHT22;27089;50.022;7.604;2023-09-19T12:42:17;20.30;99.90
41344;DHT22;27089;50.022;7.604;2023-09-19T12:44:45;20.30;99.90
41344;DHT22;27089;50.022;7.604;2023-09-19T12:47:15;20.20;99.90
41344;DHT22;27089;50.022;7.604;2023-09-19T12:50:12;20.20;99.90
41344;DHT22;27089;50.022;7.604;2023-09-19T12:52:41;20.20;99.90
41344;DHT22;27089;50.022;7.604;2023-09-19T12:55:20;20.20;99.90
41344;DHT22;27089;50.022;7.604;2023-09-19T12:58:09;20.20;99.90
41344;DHT22;27089;50.022;7.604;2023-09-19T13:00:39;20.30;99.90
41344;DHT22;27089;50.022;7.604;2023-09-19T13:03:14;20.30;99.90
41344;DHT22;27089;50.022;7.604;2023-09-19T13:05:49;20.40;99.90
41344;DHT22;27089;50.022;7.604;2023-09-19T13:08:23;20.40;99.90
41344;DHT22;27089;50.022;7.604;2023-09-19T13:11:02;20.50;99.90
41344;DHT22;27089;50.022;7.604;2023-09-19T13:13:29;20.40;99.90
41344;DHT22;27089;50.022;7.604;2023-09-19T13:15:56;20.30;99.90
41344;DHT22;27089;50.022;7.604;2023-09-19T13:18:24;20.40;99.90
41344;DHT22;27089;50.022;7.604;2023-09-19T13:21:07;20.40;99.90
41344;DHT22;27089;50.022;7.604;2023-09-19T13:23:36;20.40;99.90
41344;DHT22;27089;50.022;7.604;2023-09-19T13:26:03;20.40;99.90
41344;DHT22;27089;50.022;7.604;2023-09-19T13:28:31;20.30;99.90
41344;DHT22;27089;50.022;7.604;2023-09-19T13:30:58;20.30;99.90
41344;DHT22;27089;50.022;7.604;2023-09-19T13:33:25;20.30;99.90
41344;DHT22;27089;50.022;7.604;2023-09-19T13:35:52;20.30;99.90
41344;DHT22;27089;50.022;7.604;2023-09-19T13:38:21;20.40;99.90
41344;DHT22;27089;50.022;7.604;2023-09-19T13:40:49;20.40;99.90
41344;DHT22;27089;50.022;7.604;2023-09-19T13:43:18;20.50;99.90
41344;DHT22;27089;50.022;7.604;2023-09-19T13:45:47;20.40;99.90
41344;DHT22;27089;50.022;7.604;2023-09-19T13:48:15;20.50;99.90
41344;DHT22;27089;50.022;7.604;2023-09-19T13:50:48;20.50;99.90
41344;DHT22;27089;50.022;7.604;2023-09-19T13:53:15;20.50;99.90
41344;DHT22;27089;50.022;7.604;2023-09-19T13:55:50;20.40;99.90
41344;DHT22;27089;50.022;7.604;2023-09-19T13:58:17;20.30;99.90
41344;DHT22;27089;50.022;7.604;2023-09-19T14:00:44;20.30;99.90
41344;DHT22;27089;50.022;7.604;2023-09-19T14:03:12;20.30;99.90
41344;DHT22;27089;50.022;7.604;2023-09-19T14:05:38;20.30;99.90
41344;DHT22;27089;50.022;7.604;2023-09-19T14:08:06;20.30;99.90
41344;DHT22;27089;50.022;7.604;2023-09-19T14:10:34;20.40;99.90
41344;DHT22;27089;50.022;7.604;2023-09-19T14:13:03;20.30;99.90
41344;DHT22;27089;50.022;7.604;2023-09-19T14:15:30;20.10;99.90
41344;DHT22;27089;50.022;7.604;2023-09-19T14:17:58;20.00;99.90
41344;DHT22;27089;50.022;7.604;2023-09-19T14:20:26;20.10;99.90
41344;DHT22;27089;50.022;7.604;2023-09-19T14:22:53;20.10;99.90
41344;DHT22;27089;50.022;7.604;2023-09-19T14:25:20;20.20;99.90
41344;DHT22;27089;50.022;7.604;2023-09-19T14:27:49;20.10;99.90
41344;DHT22;27089;50.022;7.604;2023-09-19T14:30:18;20.10;99.90
41344;DHT22;27089;50.022;7.604;2023-09-19T14:32:45;20.00;99.90
41344;DHT22;27089;50.022;7.604;2023-09-19T14:35:11;20.00;99.90
41344;DHT22;27089;50.022;7.604;2023-09-19T14:37:39;19.90;99.90
41344;DHT22;27089;50.022;7.604;2023-09-19T14:40:08;20.00;99.90
41344;DHT22;27089;50.022;7.604;2023-09-19T14:42:38;20.00;99.90
41344;DHT22;27089;50.022;7.604;2023-09-19T14:45:06;20.00;99.90
41344;DHT22;27089;50.022;7.604;2023-09-19T14:47:34;20.00;99.90
41344;DHT22;27089;50.022;7.604;2023-09-19T14:50:04;20.00;99.90
41344;DHT22;27089;50.022;7.604;2023-09-19T14:52:32;20.00;99.90
41344;DHT22;27089;50.022;7.604;2023-09-19T14:55:00;20.00;99.90
41344;DHT22;27089;50.022;7.604;2023-09-19T14:57:27;20.00;99.90
41344;DHT22;27089;50.022;7.604;2023-09-19T14:59:55;20.00;99.90
41344;DHT22;27089;50.022;7.604;2023-09-19T15:02:22;20.00;99.90
41344;DHT22;27089;50.022;7.604;2023-09-19T15:04:51;20.00;99.90
41344;DHT22;27089;50.022;7.604;2023-09-19T15:07:18;19.90;99.90
41344;DHT22;27089;50.022;7.604;2023-09-19T15:09:45;19.90;99.90
41344;DHT22;27089;50.022;7.604;2023-09-19T15:12:13;19.80;99.90
41344;DHT22;27089;50.022;7.604;2023-09-19T15:14:40;19.70;99.90
41344;DHT22;27089;50.022;7.604;2023-09-19T15:17:08;19.60;99.90
41344;DHT22;27089;50.022;7.604;2023-09-19T15:19:35;19.50;99.90
41344;DHT22;27089;50.022;7.604;2023-09-19T15:22:05;19.30;99.90
41344;DHT22;27089;50.022;7.604;2023-09-19T15:24:32;19.20;99.90
41344;DHT22;27089;50.022;7.604;2023-09-19T15:27:00;19.10;99.90
41344;DHT22;27089;50.022;7.604;2023-09-19T15:29:27;19.10;99.90
41344;DHT22;27089;50.022;7.604;2023-09-19T15:31:55;19.10;99.90
41344;DHT22;27089;50.022;7.604;2023-09-19T15:34:27;19.20;99.90
41344;DHT22;27089;50.022;7.604;2023-09-19T15:36:54;19.30;99.90
41344;DHT22;27089;50.022;7.604;2023-09-19T15:39:23;19.30;99.90
41344;DHT22;27089;50.022;7.604;2023-09-19T15:41:50;19.30;99.90
41344;DHT22;27089;50.022;7.604;2023-09-19T15:44:18;19.30;99.90
41344;DHT22;27089;50.022;7.604;2023-09-19T15:46:45;19.30;99.90
41344;DHT22;27089;50.022;7.604;2023-09-19T15:49:12;19.40;99.90
41344;DHT22;27089;50.022;7.604;2023-09-19T15:51:39;19.40;99.90
41344;DHT22;27089;50.022;7.604;2023-09-19T15:54:10;19.30;99.90
41344;DHT22;27089;50.022;7.604;2023-09-19T15:56:40;19.20;99.90
41344;DHT22;27089;50.022;7.604;2023-09-19T15:59:08;19.20;99.90